• Join FlightAware (Why Join?)
  • Login
  • US Flag 
08:53PM EDT


 

Airport Tracker/Info


-or-


 

Live Flight TrackerFlight Track Log ✈ ASQ5810 ✈ 27-Apr-2013 ✈ KABE - KORD

Flight Track Log - Related Links

Times and Time Zones

All times are in EDT time to prevent confusion due to time zone crossing. See the ASQ5810 flight status page for this flight to view local times or setup timezone preferences in your user account.

Time Position Orientation Groundspeed Altitude Reporting Facility
EDT Latitude Longitude Course Direction KTS MPH feet Rate Location/Type
06:08AM 40.6372 -75.5650 264° West 215 247 4,700  Level New York Center
06:09AM 40.6614 -75.6353 294° West 259 298 7,100 2,280 Climbing New York Center
06:10AM 40.6489 -75.7328 260° West 251 289 9,300 1,920 Climbing New York Center
06:11AM 40.6383 -75.8361 262° West 275 316 11,000 1,500 Climbing New York Center
06:12AM 40.6269 -75.9528 263° West 311 358 12,400 1,560 Climbing New York Center
06:13AM 40.5868 -76.1381 264° West  Level FlightAware Approximate
06:13AM 40.6133 -76.0775 262° West 344 396 14,200  Level New York Center
06:14AM 40.5992 -76.2022 262° West 349 402 15,900 1,680 Climbing New York Center
06:15AM 40.5856 -76.3186 261° West 349 402 17,600 1,560 Climbing New York Center
06:16AM 40.5706 -76.4567 262° West 349 402 19,000 1,500 Climbing New York Center
06:17AM 40.5567 -76.5731 261° West 349 402 20,600 1,620 Climbing New York Center
06:18AM 40.5608 -76.6964 273° West 349 402 22,300 1,680 Climbing New York Center
06:19AM 40.5733 -76.8231 277° West 349 402 24,000 1,740 Climbing New York Center
06:20AM 40.5839 -76.9417 277° West 349 402 25,800 1,500 Climbing New York Center
06:21AM 40.5939 -77.0656 276° West 349 402 27,000 1,140 Climbing New York Center
06:22AM 40.6039 -77.1894 276° West 344 396 28,100 1,140 Climbing New York Center
06:23AM 40.6158 -77.3136 277° West 344 396 29,300 1,140 Climbing New York Center
06:25AM 40.6361 -77.5650 276° West 346 398 31,500 1,140 Climbing Cleveland Center
06:26AM 40.6475 -77.6906 277° West 346 398 32,700 1,200 Climbing Cleveland Center
06:27AM 40.6569 -77.8186 276° West 351 404 33,900 1,140 Climbing Cleveland Center
06:28AM 40.6767 -77.9467 282° West 351 404 35,000 1,020 Climbing Cleveland Center
06:29AM 40.6942 -78.0772 280° West 351 404 36,000 480 Climbing Cleveland Center
06:30AM 40.7114 -78.2028 280° West 351 404 36,000  Level Cleveland Center
06:31AM 40.7289 -78.3336 280° West 356 410 36,000  Level Cleveland Center
06:32AM 40.7458 -78.4619 280° West 356 410 36,000  Level Cleveland Center
06:33AM 40.7625 -78.5847 280° West 356 410 36,000  Level Cleveland Center
06:34AM 40.7792 -78.7047 280° West 350 403 36,000  Level Cleveland Center
06:35AM 40.7958 -78.8278 280° West 345 397 36,000  Level Cleveland Center
06:36AM 40.8078 -78.9236 279° West 345 397 36,000  Level Cleveland Center
06:37AM 40.8283 -79.0683 281° West 345 397 36,000  Level Cleveland Center
06:38AM 40.8447 -79.1914 280° West 345 397 36,000  Level Cleveland Center
06:39AM 40.8606 -79.3175 279° West 345 397 36,000  Level Cleveland Center
06:40AM 40.8744 -79.4353 279° West 358 412 36,000  Level Cleveland Center
06:41AM 40.8922 -79.5614 281° West 358 412 36,000  Level Cleveland Center
06:42AM 40.9081 -79.6875 279° West 358 412 36,000  Level Cleveland Center
06:43AM 40.9233 -79.8136 279° West 352 405 36,000  Level Cleveland Center
06:44AM 40.9389 -79.9428 279° West 352 405 36,000  Level Cleveland Center
06:45AM 40.9542 -80.0664 279° West 352 405 36,000  Level Cleveland Center
06:46AM 40.9692 -80.1928 279° West 352 405 36,000  Level Cleveland Center
06:47AM 40.9842 -80.3192 279° West 352 405 36,000  Level Cleveland Center
06:48AM 40.9989 -80.4456 279° West 352 405 36,000  Level Cleveland Center
06:49AM 41.0136 -80.5719 279° West 352 405 36,000  Level Cleveland Center
06:50AM 41.0281 -80.6986 279° West 352 405 36,000  Level Cleveland Center
06:51AM 41.0447 -80.8253 280° West 352 405 36,000  Level Cleveland Center
06:52AM 41.0547 -80.9547 276° West 352 405 36,000  Level Cleveland Center
06:53AM 41.0583 -81.0869 272° West 352 405 36,000  Level Cleveland Center
06:54AM 41.0681 -81.2139 276° West 352 405 36,000  Level Cleveland Center
06:55AM 41.0778 -81.3461 276° West 352 405 36,000  Level Cleveland Center
06:56AM 41.0831 -81.4756 273° West 352 405 36,000  Level Cleveland Center
06:57AM 41.0903 -81.6189 274° West 358 412 36,000  Level Cleveland Center
06:58AM 41.0992 -81.7569 275° West 370 426 36,000  Level Cleveland Center
06:59AM 41.1083 -81.8894 275° West 365 420 36,000  Level Cleveland Center
07:00AM 41.1150 -82.0244 274° West 370 426 36,000  Level Cleveland Center
07:01AM 41.1236 -82.1569 275° West 368 423 36,000  Level Cleveland Center
07:02AM 41.1322 -82.2894 275° West 363 418 36,000  Level Cleveland Center
07:03AM 41.1386 -82.4111 274° West 369 425 36,000  Level Cleveland Center
07:04AM 41.1447 -82.5436 274° West 369 425 36,000  Level Cleveland Center
07:05AM 41.1506 -82.6817 273° West 369 425 36,000  Level Cleveland Center
07:06AM 41.1583 -82.8172 274° West 369 425 36,000  Level Cleveland Center
07:07AM 41.1661 -82.9525 274° West 369 425 36,000  Level Cleveland Center
07:08AM 41.1717 -83.0850 273° West 369 425 36,000  Level Cleveland Center
07:09AM 41.1767 -83.2344 273° West 369 425 36,000  Level Cleveland Center
07:10AM 41.1839 -83.3669 274° West 369 425 36,000  Level Cleveland Center
07:11AM 41.1908 -83.5053 274° West 369 425 36,000 -180 Level Cleveland Center
07:12AM 41.1956 -83.6408 273° West 369 425 35,700 -420 Descending Cleveland Center
07:13AM 41.2025 -83.7764 274° West 363 418 35,200 -540 Descending Cleveland Center
07:14AM 41.2114 -83.9039 275° West 363 418 34,700 -600 Descending Cleveland Center
07:15AM 41.2156 -84.0422 272° West 368 423 34,100 -360 Descending Cleveland Center
07:16AM 41.2217 -84.1778 273° West 368 423 34,000 -120 Descending Cleveland Center
07:16AM 41.2225 -84.2275 271° West 376 433 34,000  Level Chicago Center
07:17AM 41.2269 -84.3661 272° West 378 435 34,000  Level Chicago Center
07:18AM 41.2308 -84.5058 272° West 379 436 34,000  Level Chicago Center
07:19AM 41.2344 -84.6478 272° West 383 441 34,000  Level Chicago Center
07:20AM 41.2397 -84.7894 273° West 385 443 34,000 -120 Level Chicago Center
07:21AM 41.2458 -84.9308 273° West 383 441 33,800 -600 Descending Chicago Center
07:22AM 41.2508 -85.0742 273° West 386 444 32,800 -1,440 Descending Chicago Center
07:23AM 41.2556 -85.2150 273° West 382 440 31,000 -1,920 Descending Chicago Center
07:24AM 41.2606 -85.3611 273° West 388 447 29,000 -1,980 Descending Chicago Center
07:25AM 41.2678 -85.5456 273° West 410 472 27,000 -1,860 Descending Chicago Center
07:26AM 41.2722 -85.7083 272° West 433 498 25,300 -1,020 Descending Chicago Center
07:27AM 41.2906 -85.8672 279° West 434 499 25,000 -180 Descending Chicago Center
07:28AM 41.3233 -86.0200 286° West 430 495 25,000  Level Chicago Center
07:29AM 41.3567 -86.1708 286° West 426 490 25,000  Level Chicago Center
07:30AM 41.3892 -86.3222 286° West 427 491 25,000  Level Chicago Center
07:31AM 41.4219 -86.4758 286° West 431 496 25,000  Level Chicago Center
07:32AM 41.4539 -86.6303 285° West 432 497 25,000 -1,140 Level Chicago Center
07:33AM 41.4861 -86.7803 286° West 423 487 22,700 -3,240 Descending Chicago Center
07:34AM 41.5144 -86.9181 285° West 398 458 18,500 -3,720 Descending Chicago Center
07:35AM 41.5422 -87.0561 285° West 390 449 15,200 -2,760 Descending Chicago Center
07:37AM 41.5833 -87.2333 287° West 371 427 12,300 -1,440 Descending Chicago TRACON
07:38AM 41.6500 -87.3500 307° West 361 415 12,000 -180 Descending Chicago TRACON
07:39AM 41.7000 -87.4333 309° West 366 421 12,000  Level Chicago TRACON
07:40AM 41.7667 -87.5500 307° West 368 423 12,000  Level Chicago TRACON
07:40AM 41.8167 -87.6333 309° West 368 423 12,000 -300 Level Chicago TRACON
07:41AM 41.8667 -87.7167 309° West 289 333 11,500 -1,320 Descending Chicago TRACON
07:42AM 41.9000 -87.8167 294° West 280 322 9,600 -1,860 Descending Chicago TRACON
07:43AM 41.9167 -87.9000 285° West 288 331 8,000 -1,380 Descending Chicago TRACON
07:44AM 41.9500 -88.0000 294° West 271 312 7,000 -660 Descending Chicago TRACON
07:45AM 42.0000 -88.0833 309° West 274 315 6,700 -840 Descending Chicago TRACON
07:46AM 42.0500 -88.1333 323° Northwest 261 300 5,500 -1,260 Descending Chicago TRACON
07:47AM 42.0581 -88.1486 305° West 265 305 5,100 -1,620 Descending Chicago Center
07:47AM 42.1000 -88.1167 29° Northeast 283 326 3,900 -1,380 Descending Chicago TRACON
07:48AM 42.0833 -88.0333 105° East 245 282 2,900 -900 Descending Chicago TRACON
07:49AM 42.0333 -87.9833 143° Southeast 193 222 2,100 -900 Descending Chicago TRACON
07:50AM 42.0000 -87.9500 143° Southeast 140 161 1,200 -900 Descending Chicago TRACON